Time;durP1;ratioP1;P1;durP2;ratioP2;P2;SDS_P1;SDS_P2;PMS_P1;PMS_P2;Temp;Humidity;BMP_temperature;BMP_pressure;BME280_temperature;BME280_humidity;BME280_pressure;Samples;Min_cycle;Max_cycle;Signal;HPM_P1;HPM_P2
2023/06/14 00:01:15;;;;;;;4.03;2.90;;;16.10;99.00;;;;;;5111447;28;20504;-47
2023/06/14 00:03:42;;;;;;;5.00;3.07;;;16.10;98.60;;;;;;5111437;28;20497;-46
2023/06/14 00:06:09;;;;;;;5.50;3.10;;;16.10;98.70;;;;;;5109180;28;20476;-50
2023/06/14 00:08:37;;;;;;;4.10;3.03;;;16.10;98.50;;;;;;5111210;28;20850;-49
2023/06/14 00:11:04;;;;;;;5.27;2.87;;;16.00;99.30;;;;;;5111247;28;20469;-47
2023/06/14 00:13:31;;;;;;;4.50;3.13;;;16.00;98.80;;;;;;5111125;28;20481;-46
2023/06/14 00:15:58;;;;;;;4.70;2.87;;;16.00;98.70;;;;;;5110594;28;20873;-47
2023/06/14 00:18:26;;;;;;;4.70;2.80;;;16.00;99.30;;;;;;5110863;28;21040;-46
2023/06/14 00:20:53;;;;;;;4.10;2.53;;;16.00;99.90;;;;;;5110792;28;20471;-45
2023/06/14 00:23:20;;;;;;;6.90;2.97;;;15.90;99.10;;;;;;5110097;28;20533;-46
2023/06/14 00:25:48;;;;;;;4.57;3.30;;;15.80;98.80;;;;;;5110747;28;20527;-46
2023/06/14 00:28:16;;;;;;;4.27;2.87;;;15.80;99.00;;;;;;5110901;28;20528;-46
2023/06/14 00:30:44;;;;;;;5.90;3.50;;;15.80;98.90;;;;;;5111016;28;20561;-46
2023/06/14 00:33:10;;;;;;;4.37;3.13;;;15.80;99.30;;;;;;5111074;28;20468;-46
2023/06/14 00:35:37;;;;;;;5.13;3.40;;;15.90;99.50;;;;;;5110549;28;20860;-47
2023/06/14 00:38:04;;;;;;;6.43;2.90;;;15.90;99.10;;;;;;5110907;28;20571;-50
2023/06/14 00:40:32;;;;;;;6.00;3.80;;;15.90;99.90;;;;;;5113146;28;20518;-46
2023/06/14 00:43:00;;;;;;;4.50;2.77;;;15.90;99.60;;;;;;5110873;28;20451;-49
2023/06/14 00:45:27;;;;;;;5.27;3.40;;;15.80;99.90;;;;;;5114443;28;20465;-48
2023/06/14 00:47:55;;;;;;;6.57;3.53;;;15.70;99.90;;;;;;5114447;28;20514;-47
2023/06/14 00:50:23;;;;;;;3.90;2.90;;;15.60;99.90;;;;;;5114432;28;20834;-46
2023/06/14 00:52:50;;;;;;;4.20;3.80;;;15.60;99.90;;;;;;5114729;28;20473;-46
2023/06/14 00:55:17;;;;;;;3.97;2.60;;;15.50;99.90;;;;;;5113998;28;20451;-50
2023/06/14 00:57:45;;;;;;;5.57;3.30;;;15.50;99.90;;;;;;5114033;28;20983;-46
2023/06/14 01:00:14;;;;;;;5.00;4.00;;;15.40;99.90;;;;;;5114339;28;20850;-46
2023/06/14 01:02:42;;;;;;;4.23;3.40;;;15.40;99.90;;;;;;5113910;28;20536;-50
2023/06/14 01:05:10;;;;;;;4.77;3.27;;;15.40;99.90;;;;;;5113956;28;20444;-47
2023/06/14 01:07:48;;;;;;;7.73;3.13;;;15.30;99.80;;;;;;5114179;28;20437;-46
2023/06/14 01:10:27;;;;;;;4.60;3.60;;;15.40;99.20;;;;;;5114341;28;20464;-46
2023/06/14 01:13:03;;;;;;;4.60;3.40;;;15.50;99.20;;;;;;5113990;28;20491;-49
2023/06/14 01:15:32;;;;;;;4.53;3.57;;;15.40;99.00;;;;;;5113541;28;20456;-47
2023/06/14 01:18:03;;;;;;;3.97;3.57;;;15.30;99.50;;;;;;5114086;28;20482;-46
2023/06/14 01:20:30;;;;;;;4.47;3.23;;;15.20;99.20;;;;;;5114073;28;20463;-46
2023/06/14 01:22:59;;;;;;;4.80;2.80;;;15.10;98.90;;;;;;5112044;28;20526;-46
2023/06/14 01:25:27;;;;;;;8.00;3.63;;;15.00;99.00;;;;;;5113453;28;20452;-51
2023/06/14 01:27:59;;;;;;;5.37;2.80;;;15.00;99.00;;;;;;5113393;28;20457;-51
2023/06/14 01:30:27;;;;;;;7.63;3.73;;;15.00;99.90;;;;;;5114226;28;20565;-46
2023/06/14 01:32:56;;;;;;;7.13;3.27;;;15.00;99.30;;;;;;5113830;28;20447;-46
2023/06/14 01:35:23;;;;;;;4.23;3.37;;;15.10;99.10;;;;;;5113430;28;20527;-48
2023/06/14 01:37:52;;;;;;;4.37;3.17;;;15.00;99.90;;;;;;5113219;28;20526;-46
2023/06/14 01:40:23;;;;;;;6.30;3.00;;;15.00;99.90;;;;;;5113363;28;20488;-47
2023/06/14 01:42:51;;;;;;;5.33;3.30;;;14.90;99.90;;;;;;5109664;28;20476;-47
2023/06/14 01:45:20;;;;;;;5.03;2.80;;;14.90;99.90;;;;;;5113102;28;20525;-47
2023/06/14 01:47:47;;;;;;;5.80;3.60;;;14.90;99.90;;;;;;5113103;28;20520;-46
2023/06/14 01:50:14;;;;;;;4.30;3.13;;;14.70;99.90;;;;;;5112626;28;20546;-46
2023/06/14 01:52:41;;;;;;;4.50;2.80;;;14.70;99.90;;;;;;5113366;28;20519;-46
2023/06/14 01:55:09;;;;;;;6.20;3.47;;;14.70;99.30;;;;;;5112763;28;20446;-47
2023/06/14 01:57:37;;;;;;;5.10;3.03;;;14.70;99.70;;;;;;5112847;28;20580;-46
2023/06/14 02:00:08;;;;;;;6.23;3.27;;;14.70;99.70;;;;;;5112914;28;20547;-50
2023/06/14 02:02:35;;;;;;;4.30;2.93;;;14.70;99.80;;;;;;5113122;28;20440;-46
2023/06/14 02:05:02;;;;;;;5.00;3.60;;;14.70;99.90;;;;;;5112589;28;20994;-46
2023/06/14 02:07:29;;;;;;;4.00;2.80;;;14.70;99.90;;;;;;5112846;28;20479;-46
2023/06/14 02:09:56;;;;;;;4.23;2.90;;;14.70;99.50;;;;;;5113013;28;21049;-46
2023/06/14 02:12:23;;;;;;;5.60;3.27;;;14.70;99.90;;;;;;5113168;28;20462;-50
2023/06/14 02:14:51;;;;;;;4.47;3.17;;;14.70;99.60;;;;;;5112964;28;20447;-48
2023/06/14 02:17:18;;;;;;;3.97;2.80;;;14.60;99.90;;;;;;5112068;28;20444;-47
2023/06/14 02:19:45;;;;;;;5.13;2.83;;;14.60;99.90;;;;;;5112972;28;20588;-46
2023/06/14 02:22:14;;;;;;;5.73;3.20;;;14.60;99.90;;;;;;5111015;28;20468;-46
2023/06/14 02:24:41;;;;;;;4.50;3.33;;;;;;;;;;5112415;28;20444;-50
2023/06/14 02:27:10;;;;;;;3.90;2.80;;;14.40;99.30;;;;;;5112083;28;20499;-46
2023/06/14 02:29:37;;;;;;;4.60;2.70;;;14.30;99.80;;;;;;5112523;28;20481;-46
2023/06/14 02:32:07;;;;;;;5.80;3.70;;;14.50;99.90;;;;;;5112460;28;20478;-50
2023/06/14 02:34:34;;;;;;;4.43;3.27;;;14.50;99.90;;;;;;5112303;28;20444;-51
2023/06/14 02:37:02;;;;;;;5.40;3.37;;;14.50;99.90;;;;;;5112829;28;20532;-46
2023/06/14 02:39:29;;;;;;;4.00;2.60;;;14.40;99.90;;;;;;5112444;28;20474;-46
2023/06/14 02:41:56;;;;;;;3.87;2.70;;;14.40;99.90;;;;;;5108612;28;20513;-49
2023/06/14 02:44:26;;;;;;;5.07;3.10;;;14.30;99.90;;;;;;5111906;28;20438;-48
2023/06/14 02:46:53;;;;;;;6.00;3.37;;;14.10;99.90;;;;;;5112306;28;20448;-46
2023/06/14 02:49:22;;;;;;;4.73;3.17;;;14.10;99.90;;;;;;5111398;28;20463;-46
2023/06/14 02:51:49;;;;;;;6.00;3.13;;;14.20;99.90;;;;;;5111940;28;20475;-50
2023/06/14 02:54:16;;;;;;;4.90;3.03;;;14.20;99.90;;;;;;5111522;28;20435;-46
2023/06/14 02:56:43;;;;;;;5.60;3.30;;;14.40;99.90;;;;;;5112201;28;20530;-47
2023/06/14 02:59:10;;;;;;;3.50;2.70;;;14.40;99.90;;;;;;5111891;28;20564;-47
2023/06/14 03:01:40;;;;;;;4.40;3.60;;;14.50;99.90;;;;;;5111612;28;20594;-50
2023/06/14 03:04:08;;;;;;;5.50;3.67;;;14.50;99.90;;;;;;5111473;28;20449;-47
2023/06/14 03:06:36;;;;;;;4.30;3.10;;;14.50;99.90;;;;;;5111538;28;20472;-46
2023/06/14 03:09:05;;;;;;;4.57;3.43;;;14.40;99.90;;;;;;5111280;28;20974;-50
2023/06/14 03:11:32;;;;;;;5.83;3.10;;;14.40;99.90;;;;;;5111552;28;20978;-46
2023/06/14 03:13:59;;;;;;;5.37;4.10;;;14.40;99.90;;;;;;5112172;28;20539;-47
2023/06/14 03:16:29;;;;;;;4.20;2.80;;;14.40;99.90;;;;;;5111383;28;20480;-47
2023/06/14 03:18:57;;;;;;;4.20;3.17;;;14.40;99.90;;;;;;5111901;28;20473;-48
2023/06/14 03:21:24;;;;;;;6.30;4.03;;;14.50;99.90;;;;;;5109797;28;20463;-46
2023/06/14 03:23:53;;;;;;;4.50;3.00;;;14.50;99.90;;;;;;5111773;28;20501;-46
2023/06/14 03:26:21;;;;;;;4.40;3.40;;;14.70;99.90;;;;;;5111284;28;20960;-48
2023/06/14 03:28:48;;;;;;;4.17;3.10;;;14.70;99.90;;;;;;5111172;28;20439;-46
2023/06/14 03:31:16;;;;;;;6.63;3.83;;;14.80;99.90;;;;;;5111233;28;20521;-49
2023/06/14 03:33:43;;;;;;;4.67;3.53;;;14.80;99.90;;;;;;5111724;28;20865;-47
2023/06/14 03:36:10;;;;;;;4.77;3.80;;;14.90;99.90;;;;;;5111196;28;20536;-46
2023/06/14 03:38:37;;;;;;;4.63;3.60;;;14.90;99.90;;;;;;5111061;28;20845;-50
2023/06/14 03:41:05;;;;;;;4.47;3.30;;;14.90;99.90;;;;;;5109655;28;20568;-47
2023/06/14 03:43:33;;;;;;;5.90;3.37;;;14.80;99.90;;;;;;5109623;28;20496;-46
2023/06/14 03:46:00;;;;;;;4.07;3.07;;;14.80;99.90;;;;;;5110954;28;20445;-46
2023/06/14 03:48:27;;;;;;;6.80;3.33;;;14.80;99.90;;;;;;5111459;28;20463;-45
2023/06/14 03:50:54;;;;;;;4.20;2.77;;;14.80;99.90;;;;;;5111332;28;20495;-45
2023/06/14 03:53:23;;;;;;;5.70;3.40;;;14.80;99.90;;;;;;5111264;28;20444;-49
2023/06/14 03:55:52;;;;;;;4.83;3.30;;;14.90;99.90;;;;;;5110874;28;20481;-48
2023/06/14 03:58:20;;;;;;;5.07;4.10;;;14.80;99.90;;;;;;5110952;28;20475;-48
2023/06/14 04:00:47;;;;;;;6.37;3.57;;;14.80;99.90;;;;;;5111060;28;20521;-45
2023/06/14 04:03:15;;;;;;;5.17;3.33;;;14.60;99.90;;;;;;5111245;28;20484;-46
2023/06/14 04:05:43;;;;;;;5.03;3.50;;;14.60;99.90;;;;;;5110909;28;20460;-46
2023/06/14 04:08:10;;;;;;;5.77;3.63;;;14.40;99.90;;;;;;5111161;28;20440;-46
2023/06/14 04:10:37;;;;;;;6.33;4.13;;;14.40;99.90;;;;;;5111301;28;20468;-45
2023/06/14 04:13:04;;;;;;;5.23;3.53;;;14.50;99.90;;;;;;5111153;28;20945;-47
2023/06/14 04:15:33;;;;;;;5.20;3.37;;;14.40;99.90;;;;;;5114626;28;20937;-46
2023/06/14 04:18:00;;;;;;;5.20;3.97;;;14.30;99.90;;;;;;5115032;28;20529;-45
2023/06/14 04:20:27;;;;;;;6.10;3.80;;;14.10;99.90;;;;;;5114882;28;20459;-48
2023/06/14 04:22:57;;;;;;;4.80;3.33;;;13.90;99.90;;;;;;5114029;28;20451;-46
2023/06/14 04:25:25;;;;;;;5.90;3.73;;;14.00;99.90;;;;;;5114452;28;20791;-46
2023/06/14 04:27:52;;;;;;;6.13;4.07;;;14.10;99.90;;;;;;5114458;28;21001;-46
2023/06/14 04:30:19;;;;;;;6.73;3.30;;;14.10;99.90;;;;;;5115188;28;20455;-46
2023/06/14 04:32:47;;;;;;;4.17;3.20;;;14.20;99.90;;;;;;5115044;28;20479;-46
2023/06/14 04:35:14;;;;;;;4.97;3.30;;;14.20;99.90;;;;;;5114444;28;20477;-47
2023/06/14 04:37:43;;;;;;;7.40;3.90;;;14.20;99.90;;;;;;5114386;28;20929;-46
2023/06/14 04:40:11;;;;;;;5.03;3.27;;;14.20;99.90;;;;;;5114701;28;20482;-51
2023/06/14 04:42:40;;;;;;;4.90;3.10;;;14.20;99.90;;;;;;5111172;28;20435;-50
2023/06/14 04:45:08;;;;;;;6.00;3.67;;;14.20;99.90;;;;;;5114825;28;20446;-47
2023/06/14 04:47:37;;;;;;;7.03;4.00;;;14.20;99.90;;;;;;5114499;28;20813;-45
2023/06/14 04:50:06;;;;;;;6.33;4.07;;;14.10;99.90;;;;;;5114502;28;20516;-52
2023/06/14 04:52:35;;;;;;;5.87;3.83;;;14.10;99.90;;;;;;5111148;28;20864;-48
2023/06/14 04:55:02;;;;;;;6.27;4.00;;;14.20;99.90;;;;;;5105959;28;20444;-46
2023/06/14 04:57:30;;;;;;;5.83;3.80;;;14.10;99.90;;;;;;5114040;28;20950;-46
2023/06/14 04:59:57;;;;;;;5.03;4.03;;;14.20;99.90;;;;;;5114506;28;20486;-47
2023/06/14 05:02:25;;;;;;;5.53;4.67;;;14.20;99.90;;;;;;5106327;28;20467;-46
2023/06/14 05:04:52;;;;;;;5.13;4.20;;;14.20;99.90;;;;;;5098327;28;20803;-47
2023/06/14 05:07:23;;;;;;;5.30;3.77;;;14.20;99.90;;;;;;5108084;28;20482;-50
2023/06/14 05:09:50;;;;;;;6.30;3.97;;;14.30;99.90;;;;;;5112974;28;20461;-47
2023/06/14 05:12:18;;;;;;;7.10;4.20;;;14.30;99.90;;;;;;5114033;28;20520;-49
2023/06/14 05:14:45;;;;;;;5.50;3.90;;;14.40;99.90;;;;;;5112071;28;20503;-50
2023/06/14 05:17:12;;;;;;;4.60;3.70;;;14.50;99.90;;;;;;5113201;28;20513;-46
2023/06/14 05:19:39;;;;;;;4.87;3.77;;;14.50;99.90;;;;;;5113216;28;20996;-46
2023/06/14 05:22:06;;;;;;;5.77;4.10;;;14.50;99.90;;;;;;5112097;28;20436;-46
2023/06/14 05:24:35;;;;;;;6.10;4.00;;;14.50;99.90;;;;;;5112962;28;20439;-46
2023/06/14 05:27:02;;;;;;;7.73;5.50;;;14.50;99.90;;;;;;5112732;28;20539;-51
2023/06/14 05:29:29;;;;;;;7.53;5.80;;;14.40;99.90;;;;;;5113147;28;20505;-46
2023/06/14 05:31:55;;;;;;;5.50;4.67;;;14.40;99.90;;;;;;5113110;28;20526;-47
2023/06/14 05:34:22;;;;;;;6.90;4.10;;;14.50;99.90;;;;;;5111768;28;20506;-47
2023/06/14 05:36:49;;;;;;;6.70;5.87;;;14.60;99.90;;;;;;5113081;28;20523;-46
2023/06/14 05:39:16;;;;;;;7.77;4.40;;;14.70;99.90;;;;;;5113174;28;20470;-53
2023/06/14 05:41:45;;;;;;;9.13;5.30;;;14.80;99.90;;;;;;5110933;28;20672;-46
2023/06/14 05:44:12;;;;;;;8.60;5.00;;;14.80;99.90;;;;;;5112449;28;20884;-47
2023/06/14 05:46:39;;;;;;;6.50;4.73;;;14.70;99.90;;;;;;5111982;28;20962;-51
2023/06/14 05:49:06;;;;;;;5.97;4.50;;;14.60;99.90;;;;;;5113035;28;20973;-47
2023/06/14 05:51:33;;;;;;;6.03;4.33;;;14.70;99.90;;;;;;5111831;28;20473;-47
2023/06/14 05:54:00;;;;;;;9.63;4.53;;;14.80;99.90;;;;;;5111810;28;20462;-47
2023/06/14 05:56:27;;;;;;;5.60;3.90;;;14.80;99.90;;;;;;5110888;28;20467;-48
2023/06/14 05:58:56;;;;;;;4.90;3.83;;;14.90;99.90;;;;;;5111444;28;20477;-49
2023/06/14 06:01:23;;;;;;;5.40;4.20;;;14.90;99.90;;;;;;5111363;28;20837;-52
2023/06/14 06:03:50;;;;;;;5.90;4.30;;;15.00;99.90;;;;;;5111502;28;20472;-50
2023/06/14 06:06:17;;;;;;;6.40;4.33;;;15.00;99.90;;;;;;5108922;28;20534;-47
2023/06/14 06:08:44;;;;;;;6.67;4.40;;;15.10;99.90;;;;;;5112831;28;20441;-49
2023/06/14 06:11:11;;;;;;;6.70;4.10;;;15.00;99.90;;;;;;5112755;28;21012;-47
2023/06/14 06:13:40;;;;;;;4.30;3.90;;;15.00;99.90;;;;;;5111711;28;20444;-49
2023/06/14 06:16:08;;;;;;;7.10;4.10;;;14.90;99.90;;;;;;5112503;28;20453;-47
2023/06/14 06:18:36;;;;;;;4.90;4.03;;;15.00;99.90;;;;;;5112179;28;20860;-47
2023/06/14 06:21:04;;;;;;;6.20;4.80;;;15.20;99.90;;;;;;5110807;28;20476;-47
2023/06/14 06:23:31;;;;;;;5.53;3.87;;;15.40;99.90;;;;;;5112382;28;20450;-47
2023/06/14 06:25:58;;;;;;;6.23;4.07;;;15.50;99.90;;;;;;5112203;28;21040;-47
2023/06/14 06:28:25;;;;;;;7.73;4.93;;;15.70;99.90;;;;;;5112548;28;20482;-50
2023/06/14 06:30:53;;;;;;;7.43;4.17;;;15.70;99.90;;;;;;5112446;28;21069;-47
2023/06/14 06:33:21;;;;;;;6.73;4.70;;;15.80;99.90;;;;;;5112604;28;20448;-46
2023/06/14 06:35:48;;;;;;;5.07;3.87;;;15.90;99.90;;;;;;5112216;28;21003;-47
2023/06/14 06:38:15;;;;;;;4.93;3.87;;;15.90;99.90;;;;;;5112238;28;20446;-46
2023/06/14 06:40:42;;;;;;;5.83;4.30;;;15.90;99.90;;;;;;5112862;28;20511;-47
2023/06/14 06:43:09;;;;;;;6.17;4.23;;;16.00;99.90;;;;;;5110901;28;20527;-46
2023/06/14 06:45:36;;;;;;;5.00;3.60;;;16.00;99.90;;;;;;5111797;28;20473;-50
2023/06/14 06:48:03;;;;;;;6.60;3.80;;;16.00;99.90;;;;;;5112121;28;20483;-47
2023/06/14 06:50:31;;;;;;;8.27;4.90;;;15.90;99.90;;;;;;5112744;28;20581;-48
2023/06/14 06:52:58;;;;;;;8.23;4.80;;;15.70;99.90;;;;;;5112217;28;20433;-48
2023/06/14 06:55:25;;;;;;;5.60;3.60;;;15.70;99.90;;;;;;5112064;28;20520;-47
2023/06/14 06:57:53;;;;;;;4.80;3.57;;;15.80;99.90;;;;;;5111903;28;20482;-47
2023/06/14 07:00:21;;;;;;;4.50;3.03;;;16.00;99.90;;;;;;5112231;28;20504;-50
2023/06/14 07:02:47;;;;;;;5.07;3.70;;;16.10;99.90;;;;;;5112145;28;20474;-47
2023/06/14 07:05:15;;;;;;;6.17;3.83;;;16.20;99.90;;;;;;5109849;28;20537;-50
2023/06/14 07:07:43;;;;;;;5.50;3.27;;;16.30;99.90;;;;;;5109819;28;20815;-48
2023/06/14 07:10:10;;;;;;;4.73;3.00;;;16.30;99.90;;;;;;5111950;28;20545;-46
2023/06/14 07:12:39;;;;;;;4.67;3.60;;;16.30;99.90;;;;;;5112094;28;20456;-49
2023/06/14 07:15:08;;;;;;;6.60;4.30;;;16.30;99.90;;;;;;5111385;28;20457;-47
2023/06/14 07:17:35;;;;;;;5.20;4.30;;;16.40;99.90;;;;;;5111553;28;20445;-49
2023/06/14 07:20:11;;;;;;;7.80;3.27;;;16.60;99.90;;;;;;5111684;28;20563;-47
2023/06/14 07:22:40;;;;;;;5.73;4.00;;;16.70;99.90;;;;;;5110232;28;20451;-47
2023/06/14 07:25:12;;;;;;;5.13;3.73;;;16.80;99.90;;;;;;5111829;28;20440;-47
2023/06/14 07:27:39;;;;;;;4.53;3.20;;;16.90;99.90;;;;;;5111675;28;20512;-47
2023/06/14 07:30:08;;;;;;;3.70;3.03;;;17.00;98.80;;;;;;5111890;28;20460;-47
2023/06/14 07:32:35;;;;;;;5.70;3.73;;;17.10;99.20;;;;;;5111326;28;20943;-47
2023/06/14 07:35:02;;;;;;;4.97;3.83;;;17.20;99.90;;;;;;5110921;28;20810;-51
2023/06/14 07:37:30;;;;;;;4.83;3.57;;;17.10;99.50;;;;;;5111318;28;20447;-46
2023/06/14 07:39:57;;;;;;;4.70;3.60;;;17.30;99.90;;;;;;5111274;28;20479;-47
2023/06/14 07:42:25;;;;;;;5.17;2.80;;;17.40;99.90;;;;;;5109850;28;20543;-53
2023/06/14 07:44:53;;;;;;;6.10;3.90;;;17.50;99.90;;;;;;5111191;28;20467;-49
2023/06/14 07:47:20;;;;;;;5.20;3.67;;;17.70;99.90;;;;;;5111209;28;20506;-52
2023/06/14 07:49:47;;;;;;;4.83;3.33;;;17.90;99.90;;;;;;5113747;28;21105;-47
2023/06/14 07:52:14;;;;;;;5.40;3.73;;;18.00;99.90;;;;;;5115474;28;21027;-46
2023/06/14 07:54:41;;;;;;;5.13;3.63;;;18.10;98.40;;;;;;5114811;28;20489;-49
2023/06/14 07:57:08;;;;;;;4.80;3.57;;;18.20;99.90;;;;;;5113844;28;20967;-47
2023/06/14 07:59:36;;;;;;;5.03;3.70;;;18.30;99.50;;;;;;5114087;28;20482;-48
2023/06/14 08:02:04;;;;;;;5.30;3.97;;;18.30;99.90;;;;;;5115155;28;20524;-49
2023/06/14 08:04:30;;;;;;;4.80;3.90;;;18.40;99.90;;;;;;5114844;28;20876;-47
2023/06/14 08:06:57;;;;;;;5.73;3.67;;;18.50;99.90;;;;;;5113173;28;20821;-48
2023/06/14 08:09:25;;;;;;;5.63;4.40;;;18.70;99.90;;;;;;5114627;28;20511;-47
2023/06/14 08:11:52;;;;;;;5.30;4.33;;;18.80;99.90;;;;;;5115678;28;20940;-49
2023/06/14 08:14:18;;;;;;;5.50;3.80;;;18.90;99.00;;;;;;5114408;28;20866;-47
2023/06/14 08:16:47;;;;;;;3.90;3.40;;;19.00;99.60;;;;;;5115234;28;20537;-47
2023/06/14 08:19:16;;;;;;;4.77;2.90;;;19.10;98.90;;;;;;5115028;28;20464;-52
2023/06/14 08:21:43;;;;;;;4.83;3.40;;;19.20;97.50;;;;;;5112885;28;20444;-48
2023/06/14 08:24:12;;;;;;;4.43;3.67;;;19.30;99.40;;;;;;5115148;28;20445;-52
2023/06/14 08:26:39;;;;;;;4.87;3.47;;;19.40;96.80;;;;;;5113132;28;20438;-47
2023/06/14 08:29:07;;;;;;;6.20;4.73;;;19.30;96.60;;;;;;5094759;28;21023;-47
2023/06/14 08:31:34;;;;;;;4.00;2.83;;;19.30;97.60;;;;;;5094673;28;20495;-50
2023/06/14 08:34:02;;;;;;;4.77;3.70;;;19.20;97.10;;;;;;5094748;28;20444;-50
2023/06/14 08:36:29;;;;;;;5.20;3.43;;;19.30;96.00;;;;;;5093742;28;20444;-48
2023/06/14 08:38:56;;;;;;;4.33;3.40;;;19.30;96.70;;;;;;5094189;28;20442;-48
2023/06/14 08:41:24;;;;;;;3.67;3.20;;;19.30;97.50;;;;;;5094429;28;20478;-47
2023/06/14 08:43:51;;;;;;;5.13;3.80;;;19.50;97.60;;;;;;5094323;28;20447;-51
2023/06/14 08:46:21;;;;;;;7.87;3.83;;;19.70;96.70;;;;;;5093647;28;20479;-46
2023/06/14 08:48:49;;;;;;;4.37;3.13;;;19.80;95.10;;;;;;5093892;28;20450;-47
2023/06/14 08:51:21;;;;;;;4.67;3.10;;;20.00;96.60;;;;;;5093917;28;20542;-48
2023/06/14 08:53:53;;;;;;;4.60;3.50;;;20.10;93.90;;;;;;5094797;28;20469;-47
2023/06/14 08:56:21;;;;;;;4.30;3.20;;;20.20;93.90;;;;;;5093554;28;20544;-49
2023/06/14 08:58:49;;;;;;;3.90;3.30;;;20.20;96.20;;;;;;5093672;28;20962;-47
2023/06/14 09:01:17;;;;;;;4.00;2.87;;;20.40;95.90;;;;;;5092770;28;20475;-48
2023/06/14 09:03:45;;;;;;;4.93;3.00;;;20.50;95.20;;;;;;5094210;28;20535;-50
2023/06/14 09:06:14;;;;;;;4.80;3.40;;;20.60;94.20;;;;;;5091828;28;20443;-50
2023/06/14 09:08:44;;;;;;;5.77;3.73;;;20.70;90.50;;;;;;5093816;28;20439;-47
2023/06/14 09:11:13;;;;;;;3.40;2.80;;;20.80;92.20;;;;;;5093806;28;20830;-47
2023/06/14 09:13:40;;;;;;;5.30;3.13;;;20.90;93.20;;;;;;5092550;28;20531;-47
2023/06/14 09:16:07;;;;;;;5.10;3.10;;;20.90;93.50;;;;;;5093464;28;20447;-48
2023/06/14 09:18:38;;;;;;;5.20;3.10;;;21.00;92.30;;;;;;5093358;28;20526;-49
2023/06/14 09:21:07;;;;;;;3.87;2.70;;;21.10;94.00;;;;;;5091603;28;20491;-51
2023/06/14 09:23:38;;;;;;;4.40;3.50;;;21.10;92.40;;;;;;5093731;28;20436;-48
2023/06/14 09:26:09;;;;;;;5.40;2.97;;;21.10;92.30;;;;;;5093217;28;20818;-47
2023/06/14 09:28:36;;;;;;;5.00;3.00;;;21.20;91.90;;;;;;5093418;28;20450;-47
2023/06/14 09:31:03;;;;;;;7.10;3.37;;;21.30;92.00;;;;;;5093357;28;21049;-50
2023/06/14 09:33:32;;;;;;;3.80;2.50;;;21.50;91.50;;;;;;5093409;28;20436;-46
2023/06/14 09:35:59;;;;;;;4.30;3.10;;;21.50;92.90;;;;;;5093097;28;20793;-46
2023/06/14 09:38:27;;;;;;;3.60;2.80;;;21.50;90.90;;;;;;5093252;28;20858;-47
2023/06/14 09:40:56;;;;;;;4.00;3.10;;;21.60;92.70;;;;;;5093234;28;20489;-50
2023/06/14 09:43:26;;;;;;;4.33;3.40;;;21.70;92.10;;;;;;5093354;28;20625;-46
2023/06/14 09:45:55;;;;;;;3.90;3.10;;;21.70;92.70;;;;;;5107584;28;20935;-49
2023/06/14 09:48:22;;;;;;;4.17;3.10;;;21.80;91.00;;;;;;5112948;28;21020;-47
2023/06/14 09:50:51;;;;;;;4.70;3.60;;;21.80;91.70;;;;;;5113405;28;20451;-47
2023/06/14 09:53:21;;;;;;;7.13;3.30;;;21.80;91.20;;;;;;5113699;28;20494;-46
2023/06/14 09:55:50;;;;;;;3.90;3.20;;;21.80;87.20;;;;;;5112819;28;20522;-50
2023/06/14 09:58:18;;;;;;;10.23;4.10;;;21.90;91.70;;;;;;5112848;28;20446;-47
2023/06/14 10:00:51;;;;;;;4.73;3.30;;;22.00;91.00;;;;;;5112913;28;20562;-48
2023/06/14 10:03:24;;;;;;;4.47;3.30;;;22.00;90.40;;;;;;5113280;28;20489;-48
2023/06/14 10:05:52;;;;;;;5.23;3.60;;;22.00;88.10;;;;;;5112789;28;20935;-47
2023/06/14 10:08:23;;;;;;;5.33;3.13;;;21.80;86.10;;;;;;5112807;28;20742;-50
2023/06/14 10:10:51;;;;;;;3.60;3.17;;;21.30;76.80;;;;;;5113169;28;20463;-49
2023/06/14 10:13:18;;;;;;;5.37;3.37;;;21.40;90.30;;;;;;5112438;28;20980;-47
2023/06/14 10:15:56;;;;;;;5.00;3.40;;;21.40;75.50;;;;;;5112444;28;20953;-50
2023/06/14 10:18:33;;;;;;;6.10;3.40;;;21.40;83.70;;;;;;5111043;28;20870;-50
2023/06/14 10:21:08;;;;;;;6.83;4.00;;;21.60;88.00;;;;;;5111877;28;20570;-51
2023/06/14 10:23:41;;;;;;;6.03;3.80;;;21.70;90.40;;;;;;5112784;28;20444;-47
2023/06/14 10:26:08;;;;;;;5.17;3.47;;;21.80;81.30;;;;;;5112133;28;20504;-51
2023/06/14 10:28:38;;;;;;;5.77;3.50;;;21.60;77.40;;;;;;5112457;28;20478;-47
2023/06/14 10:31:11;;;;;;;6.03;3.90;;;21.60;79.60;;;;;;5111548;28;20526;-47
2023/06/14 10:33:48;;;;;;;6.93;3.47;;;21.70;89.00;;;;;;5110438;28;20439;-51
2023/06/14 10:36:30;;;;;;;5.47;3.63;;;21.60;80.80;;;;;;5109718;28;20434;-47
2023/06/14 10:39:04;;;;;;;4.10;3.20;;;21.50;82.70;;;;;;5109568;28;20921;-47
2023/06/14 10:41:33;;;;;;;4.80;3.60;;;21.60;84.00;;;;;;5111645;28;20506;-47
2023/06/14 10:44:38;;;;;;;4.47;3.17;;;21.70;83.80;;;;;;5111890;28;20873;-47
2023/06/14 10:47:11;;;;;;;4.93;3.20;;;21.70;80.30;;;;;;5110995;28;20882;-51
2023/06/14 10:49:43;;;;;;;6.33;4.20;;;21.80;88.30;;;;;;5109916;28;20949;-47
2023/06/14 10:52:16;;;;;;;5.77;3.73;;;21.90;83.30;;;;;;5101223;28;20485;-47
2023/06/14 10:55:09;;;;;;;4.73;3.40;;;21.90;82.40;;;;;;5090518;28;20895;-52
2023/06/14 10:57:36;;;;;;;6.37;3.90;;;22.10;85.50;;;;;;5091022;28;20443;-50
2023/06/14 11:00:11;;;;;;;6.37;3.67;;;22.10;80.60;;;;;;5091095;28;20559;-47
2023/06/14 11:03:10;;;;;;;4.73;3.43;;;22.10;88.20;;;;;;5091397;28;20439;-47
2023/06/14 11:05:49;;;;;;;8.53;3.43;;;22.00;81.20;;;;;;5091038;28;20947;-46
2023/06/14 11:08:54;;;;;;;6.80;3.53;;;22.00;79.20;;;;;;5091233;28;20440;-50
2023/06/14 11:11:23;;;;;;;5.90;4.10;;;22.20;82.20;;;;;;5091681;28;20550;-47
2023/06/14 11:13:52;;;;;;;5.77;3.77;;;22.20;82.50;;;;;;5091604;28;20446;-47
2023/06/14 11:16:19;;;;;;;5.57;3.80;;;22.20;81.40;;;;;;5089806;28;20471;-47
2023/06/14 11:18:49;;;;;;;4.60;3.03;;;22.30;81.40;;;;;;5091231;28;20807;-50
2023/06/14 11:21:18;;;;;;;5.13;3.50;;;22.40;83.20;;;;;;5089526;28;20484;-48
2023/06/14 11:23:51;;;;;;;8.07;3.47;;;22.50;86.90;;;;;;5091116;28;20447;-48
2023/06/14 11:26:27;;;;;;;6.83;4.40;;;22.40;77.50;;;;;;5091043;28;20453;-47
2023/06/14 11:28:57;;;;;;;4.40;2.70;;;22.40;82.80;;;;;;5091474;28;20439;-47
2023/06/14 11:31:24;;;;;;;5.23;3.57;;;22.50;86.80;;;;;;5091321;28;20463;-47
2023/06/14 11:33:54;;;;;;;4.80;3.53;;;22.60;87.60;;;;;;5091363;28;21008;-47
2023/06/14 11:36:22;;;;;;;5.03;3.80;;;22.70;82.60;;;;;;5091148;28;20471;-47
2023/06/14 11:38:49;;;;;;;4.23;3.00;;;22.70;87.10;;;;;;5091033;28;20533;-47
2023/06/14 11:41:16;;;;;;;4.57;3.60;;;22.80;83.80;;;;;;5090705;28;20511;-47
2023/06/14 11:43:42;;;;;;;7.00;3.37;;;22.70;83.30;;;;;;5091251;28;20505;-47
2023/06/14 11:46:15;;;;;;;4.60;3.50;;;22.70;79.90;;;;;;5090518;28;20506;-52
2023/06/14 11:48:43;;;;;;;6.30;4.33;;;22.60;83.10;;;;;;5090618;28;20927;-49
2023/06/14 11:51:11;;;;;;;5.20;3.40;;;22.70;79.70;;;;;;5091391;28;20495;-49
2023/06/14 11:53:38;;;;;;;4.43;3.27;;;22.70;80.60;;;;;;5091115;28;20866;-49
2023/06/14 11:56:06;;;;;;;3.97;3.10;;;22.80;78.10;;;;;;5090853;28;20451;-47
2023/06/14 11:58:33;;;;;;;5.30;3.60;;;22.80;80.30;;;;;;5090691;28;20991;-48
2023/06/14 12:01:00;;;;;;;4.80;3.33;;;22.80;78.80;;;;;;5091072;28;20511;-47
2023/06/14 12:03:28;;;;;;;10.13;3.73;;;22.90;78.20;;;;;;5091142;28;20522;-47
2023/06/14 12:06:07;;;;;;;3.90;3.27;;;22.90;76.70;;;;;;5090633;28;20459;-48
2023/06/14 12:08:42;;;;;;;5.00;3.37;;;23.00;86.20;;;;;;5090755;28;20450;-47
2023/06/14 12:11:13;;;;;;;5.20;3.23;;;23.00;77.60;;;;;;5090858;28;20887;-49
2023/06/14 12:13:40;;;;;;;4.37;3.67;;;23.00;82.00;;;;;;5091065;28;20454;-47
2023/06/14 12:16:09;;;;;;;5.40;3.07;;;23.10;79.90;;;;;;5090429;28;20453;-49
2023/06/14 12:18:36;;;;;;;3.90;2.70;;;23.20;85.10;;;;;;5089119;28;20825;-48
2023/06/14 12:21:06;;;;;;;6.07;3.30;;;23.20;80.50;;;;;;5089360;28;20533;-51
2023/06/14 12:23:47;;;;;;;5.27;3.63;;;23.30;86.40;;;;;;5091260;28;20505;-47
2023/06/14 12:26:16;;;;;;;6.30;3.10;;;23.40;83.00;;;;;;5091072;28;20503;-47
2023/06/14 12:28:43;;;;;;;5.30;3.53;;;23.40;84.30;;;;;;5090937;28;20444;-47
2023/06/14 12:31:12;;;;;;;4.90;2.70;;;23.30;78.90;;;;;;5091233;28;20992;-46
2023/06/14 12:33:39;;;;;;;4.30;3.30;;;23.20;74.30;;;;;;5091225;28;20462;-48
2023/06/14 12:36:06;;;;;;;4.00;3.00;;;23.30;83.60;;;;;;5093410;28;20758;-47
2023/06/14 12:38:34;;;;;;;4.00;2.60;;;23.30;81.60;;;;;;5094221;28;20440;-48
2023/06/14 12:41:02;;;;;;;5.17;3.13;;;23.30;77.50;;;;;;5094045;28;20513;-48
2023/06/14 12:43:29;;;;;;;4.60;3.30;;;23.30;74.90;;;;;;5093494;28;21021;-49
2023/06/14 12:45:56;;;;;;;6.70;3.53;;;23.30;80.10;;;;;;5092360;28;20450;-50
2023/06/14 12:48:23;;;;;;;4.33;2.90;;;23.40;84.00;;;;;;5092534;28;20447;-49
2023/06/14 12:50:50;;;;;;;5.03;3.60;;;23.40;75.90;;;;;;5092310;28;20992;-47
2023/06/14 12:53:17;;;;;;;4.90;3.37;;;23.40;75.70;;;;;;5093083;28;20512;-52
2023/06/14 12:55:44;;;;;;;5.13;3.20;;;23.30;72.70;;;;;;5092365;28;20532;-48